Thursday, July 19, 2018, 1:57 AM EDT
Back to Local

KART, Watertown International Airport

Location: Dexter, NY, United States Lat: 43.983
Local Time: 1:57 AM EDT ( 5:57 GMT) Lon: -76.033
Time Zone: US/Eastern Elev: 324 ft

Show me the last for .
Show Coded

Time T Td Feel RH Dir Speed Gust Alt SLP Vis Weather Sky Remarks
2018-07-19 00:56 56 53 - 90 - Calm - 30.05 30.04 10 CLR 24-hr Min Temp (1am): 53.1°F
24-hr Max Temp (1am): 75.9°F
2018-07-18 23:56 58 53 - 83 170° 3 - 30.04 30.03 10 CLR None
2018-07-18 22:56 59 53 - 80 170° 7 - 30.04 30.03 10 CLR None
2018-07-18 21:56 59 54 - 83 160° 6 - 30.03 30.02 10 CLR None
2018-07-18 20:56 64 55 - 72 250° 5 - 30.02 30.01 10 CLR None
2018-07-18 19:56 68 52 - 56 270° 10 - 30.01 30.00 10 CLR 6-hr Min Temp (8pm): 68.0°F
6-hr Max Temp (8pm): 75.9°F
2018-07-18 18:56 70 50 - 49 250° 9 - 30.02 30.01 10 CLR None
2018-07-18 17:56 72 51 76 47 240° 12 - 30.01 30.00 10 CLR None
2018-07-18 16:56 75 45 - 34 300° 6 - 30.01 29.99 10 CLR None
2018-07-18 15:56 75 46 - 35 340° 10 - 30.02 30.01 10 CLR None
2018-07-18 14:56 73 45 - 36 300° 6 - 30.03 30.01 10 CLR None
2018-07-18 13:56 73 45 - 36 Variable 3 - 30.03 30.01 10 CLR 6-hr Min Temp (2pm): 64.0°F
6-hr Max Temp (2pm): 73.9°F
2018-07-18 12:56 72 45 - 38 40° 9 - 30.04 30.03 10 CLR None
2018-07-18 11:56 70 41 - 34 350° 9 18 30.05 30.03 10 CLR None
2018-07-18 10:56 70 45 - 40 330° 10 20 30.05 30.04 10 CLR None
2018-07-18 09:56 68 48 - 48 40° 13 - 30.05 30.03 10 CLR None
2018-07-18 08:56 66 51 - 58 360° 12 - 30.04 30.03 10 CLR None
2018-07-18 07:56 64 53 - 67 20° 9 - 30.03 30.02 10 CLR 6-hr Min Temp (8am): 57.0°F
6-hr Max Temp (8am): 66.9°F
2018-07-18 06:56 59 54 - 83 40° 6 - 30.02 30.01 10 CLR None
2018-07-18 05:56 58 54 - 86 30° 6 - 29.99 29.98 10 CLR None
2018-07-18 04:56 58 54 - 86 40° 5 - 29.97 29.96 10 FEW085 None
2018-07-18 03:56 62 55 - 77 20° 7 - 29.96 29.94 10 SCT090 None
2018-07-18 02:56 63 55 - 75 30° 6 - 29.94 29.93 10 CLR None

Support USWX by starting your Amazon purchase here.